createdAt,value
2023-04-23T00:00:00.350Z,77.89
2023-04-23T00:01:00.307Z,77.28
2023-04-23T00:02:00.290Z,77.79
2023-04-23T00:03:00.445Z,77.69
2023-04-23T00:04:00.387Z,77.79
2023-04-23T00:05:00.535Z,77.48
2023-04-23T00:06:00.249Z,77.34
2023-04-23T00:07:00.255Z,77.45
2023-04-23T00:08:00.221Z,77.34
2023-04-23T00:09:00.212Z,77.28
2023-04-23T00:10:00.243Z,78.09
2023-04-23T00:11:00.201Z,77.79
2023-04-23T00:12:00.228Z,78.30
2023-04-23T00:13:00.177Z,78.60
2023-04-23T00:14:00.176Z,78.80
2023-04-23T00:15:00.184Z,79.11
2023-04-23T00:16:00.410Z,79.11
2023-04-23T00:17:00.165Z,79.21
2023-04-23T00:18:00.197Z,79.17
2023-04-23T00:19:00.119Z,80.02
2023-04-23T00:20:00.124Z,80.02
2023-04-23T00:21:00.124Z,80.43
2023-04-23T00:22:00.105Z,80.73
2023-04-23T00:23:00.084Z,80.83
2023-04-23T00:24:00.075Z,81.07
2023-04-23T00:25:00.062Z,81.38
2023-04-23T00:26:00.100Z,82.03
2023-04-23T00:27:00.022Z,82.23
2023-04-23T00:28:00.061Z,82.43
2023-04-23T00:29:00.029Z,83.24
2023-04-23T00:30:00.006Z,82.94
2023-04-23T00:31:00.003Z,83.14
2023-04-23T00:32:00.009Z,83.18
2023-04-23T00:32:59.998Z,84.60
2023-04-23T00:33:59.986Z,84.09
2023-04-23T00:34:59.958Z,84.30
2023-04-23T00:35:59.937Z,84.91
2023-04-23T00:36:59.927Z,84.91
2023-04-23T00:37:59.921Z,84.80
2023-04-23T00:38:59.971Z,85.01
2023-04-23T00:39:59.899Z,84.60
2023-04-23T00:40:59.909Z,84.70
2023-04-23T00:41:59.905Z,84.91
2023-04-23T00:42:59.873Z,85.21
2023-04-23T00:43:59.903Z,85.35
2023-04-23T00:44:59.855Z,85.21
2023-04-23T00:45:59.859Z,85.31
2023-04-23T00:46:59.831Z,85.01
2023-04-23T00:48:00.049Z,85.25
2023-04-23T00:48:59.810Z,85.21
2023-04-23T00:49:59.785Z,85.52
2023-04-23T00:50:59.789Z,85.31
2023-04-23T00:51:59.775Z,85.11
2023-04-23T00:52:59.790Z,85.31
2023-04-23T00:53:59.749Z,85.11
2023-04-23T00:54:59.742Z,85.21
2023-04-23T00:55:59.737Z,85.31
2023-04-23T00:56:59.765Z,85.72
2023-04-23T00:57:59.727Z,86.22
2023-04-23T00:58:59.695Z,86.02
2023-04-23T00:59:59.685Z,86.43
2023-04-23T01:00:59.732Z,85.92
2023-04-23T01:01:59.659Z,86.07
2023-04-23T01:02:59.828Z,86.33
2023-04-23T01:03:59.816Z,86.13
2023-04-23T01:04:59.657Z,86.57
2023-04-23T01:05:59.625Z,86.22
2023-04-23T01:06:59.616Z,86.02
2023-04-23T01:07:59.609Z,86.02
2023-04-23T01:08:59.645Z,86.33
2023-04-23T01:09:59.573Z,86.53
2023-04-23T01:10:59.583Z,86.63
2023-04-23T01:11:59.561Z,86.68
2023-04-23T01:12:59.603Z,86.68
2023-04-23T01:13:59.564Z,87.08
2023-04-23T01:14:59.543Z,87.38
2023-04-23T01:15:59.525Z,87.08
2023-04-23T01:16:59.533Z,87.08
2023-04-23T01:17:59.560Z,87.08
2023-04-23T01:18:59.513Z,87.59
2023-04-23T01:19:59.488Z,87.49
2023-04-23T01:20:59.507Z,87.08
2023-04-23T01:21:59.502Z,87.59
2023-04-23T01:22:59.498Z,87.69
2023-04-23T01:23:59.492Z,87.69
2023-04-23T01:24:59.438Z,88.40
2023-04-23T01:25:59.492Z,87.69
2023-04-23T01:26:59.432Z,87.69
2023-04-23T01:27:59.457Z,87.79
2023-04-23T01:28:59.457Z,87.89
2023-04-23T01:29:59.379Z,88.10
2023-04-23T01:30:59.414Z,87.89
2023-04-23T01:31:59.355Z,87.89
2023-04-23T01:32:59.425Z,88.30
2023-04-23T01:33:59.363Z,88.91
2023-04-23T01:34:59.349Z,88.30
2023-04-23T01:35:59.308Z,88.50
2023-04-23T01:36:59.420Z,88.20
2023-04-23T01:37:59.292Z,88.40
2023-04-23T01:38:59.275Z,88.60
2023-04-23T01:39:59.295Z,88.65
2023-04-23T01:40:59.271Z,88.85
2023-04-23T01:41:59.261Z,88.95
2023-04-23T01:42:59.250Z,89.66
2023-04-23T01:43:59.258Z,89.05
2023-04-23T01:44:59.223Z,89.66
2023-04-23T01:45:59.266Z,89.36
2023-04-23T01:46:59.200Z,89.72
2023-04-23T01:47:59.242Z,89.46
2023-04-23T01:48:59.179Z,89.62
2023-04-23T01:49:59.183Z,89.66
2023-04-23T01:50:59.180Z,89.52
2023-04-23T01:51:59.158Z,88.85
2023-04-23T01:52:59.135Z,89.52
2023-04-23T01:53:59.178Z,89.56
2023-04-23T01:54:59.146Z,89.46
2023-04-23T01:55:59.166Z,89.87
2023-04-23T01:56:59.125Z,90.17
2023-04-23T01:57:59.105Z,90.17
2023-04-23T01:58:59.107Z,90.07
2023-04-23T01:59:59.067Z,90.07
2023-04-23T02:00:59.101Z,89.66
2023-04-23T02:01:59.110Z,89.97
2023-04-23T02:02:59.098Z,90.37
2023-04-23T02:03:59.217Z,90.27
2023-04-23T02:04:59.052Z,90.37
2023-04-23T02:05:59.006Z,90.68
2023-04-23T02:06:59.037Z,90.58
2023-04-23T02:07:59.001Z,90.48
2023-04-23T02:08:59.026Z,90.58
2023-04-23T02:09:58.983Z,90.48
2023-04-23T02:10:59.043Z,90.58
2023-04-23T02:11:58.980Z,90.58
2023-04-23T02:12:58.960Z,90.48
2023-04-23T02:13:58.936Z,90.78
2023-04-23T02:14:58.930Z,90.78
2023-04-23T02:15:58.950Z,90.99
2023-04-23T02:16:58.925Z,90.83
2023-04-23T02:17:58.944Z,90.88
2023-04-23T02:18:58.890Z,90.78
2023-04-23T02:19:58.883Z,90.68
2023-04-23T02:20:58.894Z,91.13
2023-04-23T02:21:58.869Z,91.33
2023-04-23T02:22:58.863Z,91.53
2023-04-23T02:23:58.843Z,91.48
2023-04-23T02:24:58.851Z,91.94
2023-04-23T02:25:58.813Z,91.53
2023-04-23T02:26:58.818Z,92.14
2023-04-23T02:27:58.796Z,91.88
2023-04-23T02:28:58.797Z,91.84
2023-04-23T02:29:58.800Z,91.94
2023-04-23T02:30:58.805Z,92.35
2023-04-23T02:31:58.793Z,92.45
2023-04-23T02:32:58.817Z,92.45
2023-04-23T02:33:58.758Z,92.35
2023-04-23T02:34:58.737Z,92.65
2023-04-23T02:35:58.716Z,92.14
2023-04-23T02:36:58.745Z,91.94
2023-04-23T02:37:58.729Z,92.25
2023-04-23T02:38:58.692Z,92.14
2023-04-23T02:39:58.676Z,92.25
2023-04-23T02:40:58.673Z,92.25
2023-04-23T02:41:58.657Z,92.45
2023-04-23T02:42:58.694Z,92.65
2023-04-23T02:43:58.663Z,92.35
2023-04-23T02:44:58.633Z,92.96
2023-04-23T02:45:58.624Z,92.55
2023-04-23T02:46:58.714Z,93.01
2023-04-23T02:47:58.650Z,92.76
2023-04-23T02:48:58.611Z,92.86
2023-04-23T02:49:58.580Z,93.51
2023-04-23T02:50:58.613Z,92.86
2023-04-23T02:51:58.557Z,92.86
2023-04-23T02:52:58.559Z,92.49
2023-04-23T02:53:58.560Z,92.96
2023-04-23T02:54:58.554Z,92.90
2023-04-23T02:55:58.527Z,93.67
2023-04-23T02:56:58.512Z,93.57
2023-04-23T02:57:58.503Z,93.92
2023-04-23T02:59:30.424Z,93.41
2023-04-23T02:59:58.500Z,93.87
2023-04-23T03:00:58.516Z,94.23
2023-04-23T03:01:58.539Z,93.98
2023-04-23T03:02:59.572Z,93.98
2023-04-23T03:03:58.540Z,94.23
2023-04-23T03:04:58.435Z,94.12
2023-04-23T03:05:59.479Z,93.62
2023-04-23T03:06:58.412Z,93.10
2023-04-23T03:07:58.428Z,93.31
2023-04-23T03:08:58.393Z,93.10
2023-04-23T03:09:58.410Z,93.21
2023-04-23T03:10:58.377Z,93.21
2023-04-23T03:11:58.363Z,93.92
2023-04-23T03:12:58.345Z,93.86
2023-04-23T03:13:58.375Z,94.12
2023-04-23T03:14:58.356Z,94.07
2023-04-23T03:15:58.335Z,94.68
2023-04-23T03:16:58.395Z,95.69
2023-04-23T03:17:58.355Z,95.49
2023-04-23T03:18:58.302Z,95.29
2023-04-23T03:19:58.297Z,95.18
2023-04-23T03:20:58.302Z,95.23
2023-04-23T03:21:58.273Z,95.39
2023-04-23T03:22:58.267Z,95.59
2023-04-23T03:23:58.268Z,95.74
2023-04-23T03:24:58.231Z,95.64
2023-04-23T03:25:58.217Z,95.69
2023-04-23T03:26:58.202Z,95.79
2023-04-23T03:27:58.229Z,95.59
2023-04-23T03:28:58.229Z,95.59
2023-04-23T03:29:58.182Z,95.39
2023-04-23T03:30:58.269Z,95.39
2023-04-23T03:31:58.206Z,95.29
2023-04-23T03:32:58.166Z,95.24
2023-04-23T03:33:58.209Z,95.29
2023-04-23T03:34:58.149Z,95.39
2023-04-23T03:35:58.134Z,95.18
2023-04-23T03:36:58.128Z,95.23
2023-04-23T03:37:58.111Z,95.39
2023-04-23T03:38:59.091Z,95.18
2023-04-23T03:39:58.161Z,95.39
2023-04-23T03:40:58.104Z,95.18
2023-04-23T03:41:58.072Z,95.39
2023-04-23T03:42:58.064Z,95.69
2023-04-23T03:43:58.039Z,95.14
2023-04-23T03:44:58.047Z,95.14
2023-04-23T03:45:58.090Z,94.63
2023-04-23T03:46:58.032Z,93.55
2023-04-23T03:47:58.029Z,94.37
2023-04-23T03:48:57.994Z,93.55
2023-04-23T03:49:57.986Z,93.96
2023-04-23T03:50:58.037Z,92.94
2023-04-23T03:51:57.957Z,92.80
2023-04-23T03:52:58.014Z,91.83
2023-04-23T03:53:57.940Z,91.62
2023-04-23T03:54:57.935Z,91.42
2023-04-23T03:55:57.974Z,91.42
2023-04-23T03:56:57.910Z,89.79
2023-04-23T03:57:57.900Z,88.67
2023-04-23T03:58:57.890Z,89.22
2023-04-23T03:59:57.921Z,88.92
2023-04-23T04:00:57.918Z,86.16
2023-04-23T04:01:57.852Z,86.33
2023-04-23T04:02:57.920Z,86.22
2023-04-23T04:03:58.082Z,85.45
2023-04-23T04:04:58.156Z,85.61
2023-04-23T04:05:57.859Z,86.53
2023-04-23T04:06:57.838Z,86.77
2023-04-23T04:07:57.848Z,86.22
2023-04-23T04:08:57.788Z,85.35
2023-04-23T04:09:57.827Z,86.06
2023-04-23T04:10:57.777Z,86.57
2023-04-23T04:11:57.764Z,85.28
2023-04-23T04:12:57.776Z,86.88
2023-04-23T04:13:57.749Z,86.47
2023-04-23T04:14:57.728Z,86.77
2023-04-23T04:15:57.840Z,86.37
2023-04-23T04:16:57.709Z,86.47
2023-04-23T04:17:57.730Z,86.06
2023-04-23T04:18:57.731Z,85.96
2023-04-23T04:19:57.696Z,86.47
2023-04-23T04:20:57.707Z,86.37
2023-04-23T04:21:57.693Z,86.77
2023-04-23T04:22:57.660Z,86.37
2023-04-23T04:23:57.648Z,86.37
2023-04-23T04:24:57.679Z,86.27
2023-04-23T04:25:57.674Z,85.55
2023-04-23T04:26:57.616Z,85.35
2023-04-23T04:27:57.609Z,85.14
2023-04-23T04:28:57.594Z,86.68
2023-04-23T04:29:57.624Z,86.16
2023-04-23T04:30:57.609Z,86.27
2023-04-23T04:31:57.569Z,86.47
2023-04-23T04:32:57.587Z,86.57
2023-04-23T04:33:57.552Z,86.77
2023-04-23T04:34:57.533Z,86.68
2023-04-23T04:35:57.593Z,86.71
2023-04-23T04:36:57.507Z,86.92
2023-04-23T04:37:57.523Z,87.32
2023-04-23T04:38:57.527Z,86.92
2023-04-23T04:39:57.511Z,87.73
2023-04-23T04:40:57.491Z,87.98
2023-04-23T04:41:57.477Z,87.98
2023-04-23T04:42:57.501Z,88.69
2023-04-23T04:43:57.452Z,88.49
2023-04-23T04:44:57.494Z,88.08
2023-04-23T04:45:57.441Z,88.08
2023-04-23T04:46:57.444Z,88.28
2023-04-23T04:47:58.536Z,88.59
2023-04-23T04:48:57.417Z,88.59
2023-04-23T04:49:57.437Z,89.10
2023-04-23T04:50:57.391Z,88.79
2023-04-23T04:51:57.373Z,88.49
2023-04-23T04:52:57.353Z,88.08
2023-04-23T04:53:57.376Z,88.08
2023-04-23T04:54:57.348Z,88.69
2023-04-23T04:55:57.334Z,88.59
2023-04-23T04:56:57.350Z,88.59
2023-04-23T04:57:57.330Z,87.77
2023-04-23T04:58:57.315Z,89.04
2023-04-23T04:59:57.315Z,88.63
2023-04-23T05:00:57.322Z,89.51
2023-04-23T05:01:57.305Z,89.14
2023-04-23T05:02:57.395Z,89.30
2023-04-23T05:03:57.431Z,88.84
2023-04-23T05:04:57.266Z,88.73
2023-04-23T05:05:57.246Z,88.32
2023-04-23T05:06:57.245Z,88.43
2023-04-23T05:07:57.222Z,88.69
2023-04-23T05:08:57.224Z,89.20
2023-04-23T05:09:57.236Z,89.40
2023-04-23T05:10:57.190Z,89.30
2023-04-23T05:11:57.190Z,89.40
2023-04-23T05:12:57.169Z,88.59
2023-04-23T05:13:57.147Z,89.40
2023-04-23T05:14:57.162Z,89.40
2023-04-23T05:15:58.162Z,89.20
2023-04-23T05:16:57.167Z,89.92
2023-04-23T05:17:57.197Z,89.71
2023-04-23T05:18:57.135Z,89.36
2023-04-23T05:19:57.091Z,89.20
2023-04-23T05:20:57.154Z,89.00
2023-04-23T05:21:57.119Z,89.40
2023-04-23T05:22:57.085Z,90.01
2023-04-23T05:23:57.082Z,89.92
2023-04-23T05:24:57.077Z,90.01
2023-04-23T05:25:57.039Z,89.51
2023-04-23T05:26:57.045Z,90.12
2023-04-23T05:27:57.066Z,89.77
2023-04-23T05:28:57.006Z,90.28
2023-04-23T05:29:56.997Z,89.36
2023-04-23T05:30:56.985Z,89.06
2023-04-23T05:31:57.053Z,89.47
2023-04-23T05:32:57.011Z,89.42
2023-04-23T05:33:56.972Z,89.06
2023-04-23T05:34:56.971Z,89.53
2023-04-23T05:35:56.946Z,89.42
2023-04-23T05:36:56.952Z,89.16
2023-04-23T05:37:56.919Z,89.16
2023-04-23T05:38:56.914Z,88.92
2023-04-23T05:39:56.888Z,89.36
2023-04-23T05:40:56.902Z,89.22
2023-04-23T05:41:56.861Z,89.01
2023-04-23T05:42:56.866Z,88.46
2023-04-23T05:43:56.872Z,88.71
2023-04-23T05:44:56.853Z,88.00
2023-04-23T05:45:56.849Z,88.00
2023-04-23T05:46:56.823Z,88.00
2023-04-23T05:47:56.846Z,88.20
2023-04-23T05:48:56.806Z,88.31
2023-04-23T05:49:56.824Z,88.51
2023-04-23T05:50:56.792Z,88.20
2023-04-23T05:51:56.800Z,88.20
2023-04-23T05:52:56.777Z,88.10
2023-04-23T05:53:56.776Z,87.55
2023-04-23T05:54:56.723Z,86.29
2023-04-23T05:55:56.794Z,86.69
2023-04-23T05:56:56.713Z,85.98
2023-04-23T05:57:56.906Z,86.15
2023-04-23T05:58:56.689Z,86.21
2023-04-23T05:59:56.701Z,84.74
2023-04-23T06:00:56.688Z,84.95
2023-04-23T06:01:56.697Z,83.32
2023-04-23T06:02:56.829Z,83.69
2023-04-23T06:03:56.761Z,83.24
2023-04-23T06:04:56.803Z,83.40
2023-04-23T06:05:56.661Z,82.29
2023-04-23T06:06:56.644Z,80.29
2023-04-23T06:07:56.611Z,79.58
2023-04-23T06:08:56.592Z,79.92
2023-04-23T06:09:56.596Z,81.18
2023-04-23T06:10:56.597Z,81.72
2023-04-23T06:11:56.555Z,82.03
2023-04-23T06:12:56.567Z,83.14
2023-04-23T06:13:56.546Z,82.94
2023-04-23T06:14:56.537Z,82.84
2023-04-23T06:15:56.534Z,82.05
2023-04-23T06:16:56.546Z,79.50
2023-04-23T06:17:56.527Z,78.75
2023-04-23T06:18:56.504Z,78.45
2023-04-23T06:19:56.480Z,78.15
2023-04-23T06:20:56.462Z,77.84
2023-04-23T06:21:56.475Z,75.44
2023-04-23T06:22:56.475Z,74.12
2023-04-23T06:23:56.432Z,71.73
2023-04-23T06:24:56.437Z,68.82
2023-04-23T06:25:56.436Z,68.41
2023-04-23T06:26:56.413Z,70.69
2023-04-23T06:27:56.396Z,70.59
2023-04-23T06:28:56.425Z,69.15
2023-04-23T06:29:56.397Z,66.81
2023-04-23T06:30:56.371Z,65.41
2023-04-23T06:31:56.359Z,65.57
2023-04-23T06:32:56.399Z,65.04
2023-04-23T06:33:56.360Z,63.37
2023-04-23T06:35:01.553Z,62.87
2023-04-23T06:35:58.330Z,63.04
2023-04-23T06:36:56.311Z,61.58
2023-04-23T06:37:56.315Z,62.05
2023-04-23T06:38:56.277Z,60.42
2023-04-23T06:39:56.308Z,58.29
2023-04-23T06:40:56.273Z,59.56
2023-04-23T06:41:56.259Z,59.36
2023-04-23T06:42:56.242Z,58.64
2023-04-23T06:43:56.235Z,58.44
2023-04-23T06:44:56.248Z,56.61
2023-04-23T06:45:56.260Z,56.96
2023-04-23T06:46:56.221Z,56.23
2023-04-23T06:47:56.332Z,54.46
2023-04-23T06:48:56.204Z,58.39
2023-04-23T06:49:56.261Z,56.62
2023-04-23T06:50:56.223Z,59.12
2023-04-23T06:51:57.793Z,59.85
2023-04-23T06:52:57.154Z,58.22
2023-04-23T06:53:56.180Z,58.95
2023-04-23T06:54:56.132Z,61.22
2023-04-23T06:55:56.139Z,58.64
2023-04-23T06:56:56.181Z,55.29
2023-04-23T06:57:56.113Z,56.04
2023-04-23T06:58:56.161Z,58.94
2023-04-23T06:59:56.106Z,57.14
2023-04-23T07:00:56.091Z,57.71
2023-04-23T07:01:56.166Z,56.07
2023-04-23T07:02:56.119Z,58.37
2023-04-23T07:03:56.081Z,57.34
2023-04-23T07:04:56.037Z,57.51
2023-04-23T07:05:56.040Z,56.48
2023-04-23T07:06:56.272Z,56.26
2023-04-23T07:07:56.022Z,56.21
2023-04-23T07:08:57.006Z,54.28
2023-04-23T07:09:56.012Z,53.06
2023-04-23T07:10:55.993Z,53.31
2023-04-23T07:11:56.284Z,53.47
2023-04-23T07:12:56.025Z,56.65
2023-04-23T07:13:55.978Z,59.33
2023-04-23T07:14:56.012Z,59.00
2023-04-23T07:15:55.952Z,58.68
2023-04-23T07:16:55.989Z,58.15
2023-04-23T07:17:55.958Z,57.07
2023-04-23T07:18:55.914Z,58.45
2023-04-23T07:19:55.907Z,57.55
2023-04-23T07:20:55.934Z,56.27
2023-04-23T07:21:55.896Z,56.77
2023-04-23T07:22:55.893Z,59.42
2023-04-23T07:23:55.909Z,62.22
2023-04-23T07:24:56.119Z,63.28
2023-04-23T07:25:55.868Z,65.46
2023-04-23T07:26:55.849Z,65.79
2023-04-23T07:27:55.854Z,66.80
2023-04-23T07:28:55.818Z,66.47
2023-04-23T07:29:55.856Z,66.40
2023-04-23T07:30:55.807Z,64.47
2023-04-23T07:31:55.876Z,63.59
2023-04-23T07:32:55.891Z,63.49
2023-04-23T07:33:55.791Z,62.50
2023-04-23T07:34:55.790Z,59.61
2023-04-23T07:35:55.843Z,56.73
2023-04-23T07:36:55.764Z,59.03
2023-04-23T07:37:55.959Z,58.40
2023-04-23T07:38:55.733Z,59.11
2023-04-23T07:39:55.729Z,60.39
2023-04-23T07:40:55.729Z,62.15
2023-04-23T07:41:55.720Z,64.09
2023-04-23T07:42:55.683Z,63.62
2023-04-23T07:43:55.686Z,64.86
2023-04-23T07:44:55.685Z,66.77
2023-04-23T07:45:55.720Z,65.47
2023-04-23T07:46:55.647Z,64.23
2023-04-23T07:47:55.673Z,61.49
2023-04-23T07:48:55.633Z,60.89
2023-04-23T07:49:55.616Z,61.58
2023-04-23T07:50:55.607Z,61.38
2023-04-23T07:51:55.616Z,63.02
2023-04-23T07:52:55.609Z,62.07
2023-04-23T07:53:55.591Z,64.69
2023-04-23T07:54:55.589Z,64.98
2023-04-23T07:55:55.588Z,65.22
2023-04-23T07:56:55.562Z,65.92
2023-04-23T07:57:55.540Z,63.62
2023-04-23T07:58:55.523Z,62.39
2023-04-23T07:59:55.557Z,60.41
2023-04-23T08:00:55.523Z,61.60
2023-04-23T08:01:55.505Z,61.11
2023-04-23T08:02:55.564Z,60.22
2023-04-23T08:03:58.400Z,58.70
2023-04-23T08:04:55.560Z,57.57
2023-04-23T08:05:55.467Z,56.74
2023-04-23T08:06:55.455Z,57.07
2023-04-23T08:07:55.444Z,56.13
2023-04-23T08:08:55.443Z,59.47
2023-04-23T08:09:55.435Z,60.24
2023-04-23T08:10:55.417Z,60.60
2023-04-23T08:11:55.458Z,63.04
2023-04-23T08:12:55.398Z,63.27
2023-04-23T08:13:55.400Z,64.31
2023-04-23T08:14:55.366Z,64.41
2023-04-23T08:15:55.385Z,64.51
2023-04-23T08:16:55.387Z,63.81
2023-04-23T08:17:55.458Z,63.70
2023-04-23T08:19:05.005Z,65.12
2023-04-23T08:19:56.326Z,63.73
2023-04-23T08:20:55.332Z,65.08
2023-04-23T08:21:55.316Z,64.87
2023-04-23T08:22:55.319Z,64.95
2023-04-23T08:23:55.280Z,64.58
2023-04-23T08:24:55.301Z,62.18
2023-04-23T08:25:55.338Z,61.50
2023-04-23T08:26:55.276Z,62.61
2023-04-23T08:27:55.261Z,62.34
2023-04-23T08:28:55.261Z,62.24
2023-04-23T08:29:55.245Z,61.25
2023-04-23T08:30:55.222Z,63.00
2023-04-23T08:31:55.239Z,60.52
2023-04-23T08:32:55.315Z,60.35
2023-04-23T08:33:55.224Z,59.52
2023-04-23T08:34:55.183Z,59.22
2023-04-23T08:35:55.162Z,59.28
2023-04-23T08:36:55.153Z,59.08
2023-04-23T08:37:55.148Z,58.62
2023-04-23T08:38:55.174Z,58.86
2023-04-23T08:39:56.137Z,58.73
2023-04-23T08:40:55.121Z,58.45
2023-04-23T08:41:55.138Z,59.59
2023-04-23T08:42:55.105Z,58.75
2023-04-23T08:43:55.091Z,58.50
2023-04-23T08:44:55.189Z,57.67
2023-04-23T08:45:56.084Z,55.93
2023-04-23T08:46:55.193Z,57.11
2023-04-23T08:47:55.072Z,55.51
2023-04-23T08:48:55.045Z,56.78
2023-04-23T08:49:55.028Z,56.13
2023-04-23T08:50:55.035Z,54.45
2023-04-23T08:51:55.022Z,56.40
2023-04-23T08:52:55.023Z,54.43
2023-04-23T08:53:55.008Z,54.00
2023-04-23T08:54:55.031Z,56.10
2023-04-23T08:55:54.962Z,53.57
2023-04-23T08:56:54.969Z,54.57
2023-04-23T08:57:54.984Z,55.44
2023-04-23T08:58:57.021Z,54.55
2023-04-23T08:59:55.920Z,53.67
2023-04-23T09:00:54.987Z,54.27
2023-04-23T09:01:54.921Z,54.64
2023-04-23T09:02:55.153Z,54.12
2023-04-23T09:03:55.090Z,52.82
2023-04-23T09:04:56.298Z,53.39
2023-04-23T09:05:55.890Z,53.59
2023-04-23T09:06:54.853Z,53.22
2023-04-23T09:07:54.858Z,53.87
2023-04-23T09:08:54.835Z,54.74
2023-04-23T09:09:54.840Z,53.69
2023-04-23T09:10:54.827Z,52.02
2023-04-23T09:11:55.124Z,54.62
2023-04-23T09:12:55.799Z,56.10
2023-04-23T09:13:54.789Z,56.16
2023-04-23T09:14:54.850Z,57.12
2023-04-23T09:15:54.766Z,57.98
2023-04-23T09:16:54.840Z,58.41
2023-04-23T09:17:54.785Z,58.97
2023-04-23T09:18:54.755Z,60.31
2023-04-23T09:19:54.741Z,60.61
2023-04-23T09:20:54.725Z,60.71
2023-04-23T09:21:54.704Z,61.32
2023-04-23T09:22:54.722Z,61.92
2023-04-23T09:23:54.716Z,60.94
2023-04-23T09:24:54.726Z,60.74
2023-04-23T09:25:54.682Z,61.88
2023-04-23T09:26:54.661Z,63.19
2023-04-23T09:27:54.738Z,62.99
2023-04-23T09:28:54.630Z,63.39
2023-04-23T09:29:54.686Z,63.19
2023-04-23T09:30:54.619Z,63.26
2023-04-23T09:31:54.674Z,62.52
2023-04-23T09:32:54.775Z,61.03
2023-04-23T09:33:54.629Z,59.56
2023-04-23T09:34:54.601Z,58.09
2023-04-23T09:35:54.585Z,57.37
2023-04-23T09:36:54.572Z,58.27
2023-04-23T09:37:54.587Z,58.80
2023-04-23T09:38:54.588Z,57.29
2023-04-23T09:39:54.546Z,58.53
2023-04-23T09:40:54.531Z,58.42
2023-04-23T09:41:54.570Z,58.38
2023-04-23T09:42:54.926Z,59.22
2023-04-23T09:43:54.504Z,59.64
2023-04-23T09:44:54.503Z,60.75
2023-04-23T09:45:54.585Z,60.35
2023-04-23T09:46:54.480Z,60.85
2023-04-23T09:47:54.605Z,60.38
2023-04-23T09:48:54.476Z,61.08
2023-04-23T09:49:54.469Z,61.18
2023-04-23T09:50:54.426Z,61.21
2023-04-23T09:51:54.423Z,61.49
2023-04-23T09:52:54.419Z,61.32
2023-04-23T09:53:54.488Z,62.49
2023-04-23T09:54:54.385Z,60.91
2023-04-23T09:55:54.388Z,60.71
2023-04-23T09:56:54.383Z,61.72
2023-04-23T09:57:54.402Z,61.39
2023-04-23T09:58:54.357Z,62.29
2023-04-23T10:00:03.712Z,61.18
2023-04-23T10:00:56.363Z,60.78
2023-04-23T10:01:54.308Z,60.98
2023-04-23T10:02:54.413Z,59.95
2023-04-23T10:03:54.436Z,60.63
2023-04-23T10:05:00.850Z,59.56
2023-04-23T10:06:01.638Z,58.93
2023-04-23T10:07:13.829Z,59.00
2023-04-23T10:07:55.265Z,58.42
2023-04-23T10:08:54.271Z,57.32
2023-04-23T10:09:54.269Z,58.40
2023-04-23T10:11:05.975Z,58.87
2023-04-23T10:11:56.216Z,57.84
2023-04-23T10:12:55.561Z,57.64
2023-04-23T10:13:55.222Z,56.36
2023-04-23T10:14:54.208Z,56.19
2023-04-23T10:15:54.233Z,57.57
2023-04-23T10:16:54.284Z,58.11
2023-04-23T10:17:54.229Z,57.81
2023-04-23T10:18:54.177Z,59.11
2023-04-23T10:19:54.160Z,59.62
2023-04-23T10:20:54.147Z,58.74
2023-04-23T10:21:57.994Z,59.64
2023-04-23T10:22:56.154Z,59.84
2023-04-23T10:23:54.172Z,58.36
2023-04-23T10:24:54.091Z,59.47
2023-04-23T10:25:54.163Z,60.00
2023-04-23T10:26:54.092Z,60.00
2023-04-23T10:27:54.788Z,60.10
2023-04-23T10:28:55.051Z,59.77
2023-04-23T10:29:54.058Z,59.12
2023-04-23T10:30:54.073Z,60.33
2023-04-23T10:31:54.024Z,60.33
2023-04-23T10:32:54.067Z,60.31
2023-04-23T10:33:58.615Z,59.57
2023-04-23T10:34:55.996Z,58.84
2023-04-23T10:35:53.977Z,59.31
2023-04-23T10:36:53.973Z,58.48
2023-04-23T10:37:53.958Z,58.05
2023-04-23T10:38:58.401Z,58.86
2023-04-23T10:39:55.942Z,57.52
2023-04-23T10:40:53.939Z,56.71
2023-04-23T10:41:53.921Z,55.88
2023-04-23T10:42:54.508Z,54.98
2023-04-23T10:43:53.930Z,56.79
2023-04-23T10:45:00.873Z,55.76
2023-04-23T10:45:55.902Z,55.68
2023-04-23T10:46:53.953Z,55.31
2023-04-23T10:47:53.889Z,56.82
2023-04-23T10:48:53.863Z,56.09
2023-04-23T10:49:53.873Z,56.19
2023-04-23T10:51:09.716Z,55.05
2023-04-23T10:52:54.865Z,54.90
2023-04-23T10:53:53.832Z,55.30
2023-04-23T10:54:53.797Z,54.90
2023-04-23T10:55:53.796Z,54.40
2023-04-23T10:56:53.783Z,53.70
2023-04-23T10:57:53.782Z,53.95
2023-04-23T10:58:53.766Z,53.25
2023-04-23T10:59:53.762Z,53.65
2023-04-23T11:00:53.742Z,53.34
2023-04-23T11:01:53.790Z,52.42
2023-04-23T11:02:53.824Z,51.42
2023-04-23T11:03:53.857Z,52.59
2023-04-23T11:04:54.833Z,53.37
2023-04-23T11:05:53.730Z,52.94
2023-04-23T11:06:53.674Z,52.75
2023-04-23T11:07:53.661Z,52.52
2023-04-23T11:08:53.762Z,52.72
2023-04-23T11:09:53.661Z,51.72
2023-04-23T11:10:53.631Z,51.69
2023-04-23T11:11:53.627Z,51.82
2023-04-23T11:12:53.609Z,52.44
2023-04-23T11:13:53.634Z,50.96
2023-04-23T11:14:53.582Z,52.09
2023-04-23T11:15:53.583Z,53.70
2023-04-23T11:16:53.602Z,53.27
2023-04-23T11:17:53.580Z,53.07
2023-04-23T11:18:53.552Z,53.50
2023-04-23T11:19:53.578Z,53.32
2023-04-23T11:20:53.527Z,53.80
2023-04-23T11:21:53.516Z,53.00
2023-04-23T11:22:53.551Z,51.69
2023-04-23T11:23:53.494Z,50.81
2023-04-23T11:24:53.512Z,50.41
2023-04-23T11:25:53.503Z,51.42
2023-04-23T11:26:53.498Z,51.21
2023-04-23T11:27:53.457Z,50.51
2023-04-23T11:28:53.426Z,51.61
2023-04-23T11:29:53.458Z,50.93
2023-04-23T11:30:53.445Z,51.84
2023-04-23T11:32:02.665Z,51.74
2023-04-23T11:32:55.492Z,52.44
2023-04-23T11:33:53.399Z,51.56
2023-04-23T11:34:53.462Z,52.67
2023-04-23T11:35:53.431Z,53.30
2023-04-23T11:36:53.370Z,53.50
2023-04-23T11:37:53.366Z,53.70
2023-04-23T11:38:53.357Z,53.80
2023-04-23T11:39:53.387Z,53.90
2023-04-23T11:40:53.397Z,53.60
2023-04-23T11:41:54.106Z,53.88
2023-04-23T11:42:53.311Z,53.27
2023-04-23T11:43:53.298Z,52.47
2023-04-23T11:44:53.292Z,53.27
2023-04-23T11:45:53.371Z,52.57
2023-04-23T11:46:53.313Z,52.67
2023-04-23T11:47:53.292Z,51.84
2023-04-23T11:48:53.272Z,52.64
2023-04-23T11:49:53.253Z,52.24
2023-04-23T11:50:53.232Z,50.93
2023-04-23T11:51:53.255Z,50.73
2023-04-23T11:52:53.210Z,51.54
2023-04-23T11:53:53.254Z,50.43
2023-04-23T11:54:53.210Z,51.14
2023-04-23T11:55:53.192Z,50.63
2023-04-23T11:56:53.209Z,50.51
2023-04-23T11:57:53.169Z,50.71
2023-04-23T11:58:53.157Z,49.60
2023-04-23T11:59:53.147Z,50.93
2023-04-23T12:00:53.169Z,49.73
2023-04-23T12:01:53.120Z,51.44
2023-04-23T12:02:53.429Z,49.80
2023-04-23T12:03:53.163Z,50.93
2023-04-23T12:04:53.109Z,49.93
2023-04-23T12:05:53.136Z,49.33
2023-04-23T12:06:53.081Z,49.45
2023-04-23T12:07:53.087Z,50.56
2023-04-23T12:08:53.060Z,51.06
2023-04-23T12:09:53.049Z,49.95
2023-04-23T12:10:53.045Z,49.63
2023-04-23T12:11:53.065Z,48.93
2023-04-23T12:12:53.024Z,50.63
2023-04-23T12:13:53.000Z,49.83
2023-04-23T12:14:52.988Z,49.85
2023-04-23T12:15:53.058Z,50.76
2023-04-23T12:16:52.994Z,49.55
2023-04-23T12:17:53.098Z,49.76
2023-04-23T12:18:52.946Z,50.76
2023-04-23T12:19:52.938Z,49.25
2023-04-23T12:20:52.951Z,49.18
2023-04-23T12:21:52.937Z,50.78
2023-04-23T12:22:52.910Z,50.48
2023-04-23T12:23:52.893Z,51.29
2023-04-23T12:24:52.907Z,51.18
2023-04-23T12:25:52.900Z,50.98
2023-04-23T12:26:52.925Z,51.39
2023-04-23T12:27:52.880Z,51.59
2023-04-23T12:28:52.885Z,50.98
2023-04-23T12:29:52.886Z,51.49
2023-04-23T12:30:52.949Z,51.49
2023-04-23T12:31:52.834Z,50.38
2023-04-23T12:32:52.849Z,50.89
2023-04-23T12:33:52.869Z,50.96
2023-04-23T12:34:52.925Z,50.76
2023-04-23T12:35:52.806Z,51.18
2023-04-23T12:36:52.780Z,49.88
2023-04-23T12:37:52.773Z,49.98
2023-04-23T12:38:52.826Z,48.97
2023-04-23T12:39:52.775Z,49.37
2023-04-23T12:40:52.729Z,49.57
2023-04-23T12:41:52.745Z,49.57
2023-04-23T12:42:52.754Z,49.45
2023-04-23T12:43:52.730Z,49.77
2023-04-23T12:44:52.715Z,49.07
2023-04-23T12:45:52.700Z,49.25
2023-04-23T12:46:54.036Z,49.45
2023-04-23T12:47:52.746Z,49.13
2023-04-23T12:48:52.659Z,49.02
2023-04-23T12:49:52.641Z,48.72
2023-04-23T12:50:52.673Z,48.32
2023-04-23T12:51:52.700Z,48.63
2023-04-23T12:52:52.629Z,48.63